sensor_id;sensor_type;location;lat;lon;timestamp;pressure;altitude;pressure_sealevel;temperature;humidity
21742;BME280;11033;47.490;11.116;2022-09-01T00:01:56;93335.19;;;14.82;88.45
21742;BME280;11033;47.490;11.116;2022-09-01T00:04:23;93327.03;;;14.84;87.10
21742;BME280;11033;47.490;11.116;2022-09-01T00:06:53;93326.81;;;14.85;86.63
21742;BME280;11033;47.490;11.116;2022-09-01T00:09:23;93323.34;;;14.85;87.61
21742;BME280;11033;47.490;11.116;2022-09-01T00:11:51;93325.81;;;14.80;89.21
21742;BME280;11033;47.490;11.116;2022-09-01T00:14:24;93330.09;;;14.81;90.44
21742;BME280;11033;47.490;11.116;2022-09-01T00:16:50;93326.41;;;14.82;88.80
21742;BME280;11033;47.490;11.116;2022-09-01T00:19:16;93332.53;;;14.82;88.54
21742;BME280;11033;47.490;11.116;2022-09-01T00:21:43;93329.66;;;14.84;88.02
21742;BME280;11033;47.490;11.116;2022-09-01T00:24:10;93337.44;;;14.79;90.22
21742;BME280;11033;47.490;11.116;2022-09-01T00:26:36;93333.41;;;14.70;90.73
21742;BME280;11033;47.490;11.116;2022-09-01T00:29:02;93335.94;;;14.51;92.04
21742;BME280;11033;47.490;11.116;2022-09-01T00:31:28;93339.38;;;14.58;92.31
21742;BME280;11033;47.490;11.116;2022-09-01T00:33:53;93330.63;;;14.38;93.82
21742;BME280;11033;47.490;11.116;2022-09-01T00:36:19;93327.38;;;14.49;93.03
21742;BME280;11033;47.490;11.116;2022-09-01T00:38:46;93317.94;;;14.60;91.61
21742;BME280;11033;47.490;11.116;2022-09-01T00:41:12;93322.81;;;14.70;90.39
21742;BME280;11033;47.490;11.116;2022-09-01T00:43:43;93321.16;;;14.75;88.27
21742;BME280;11033;47.490;11.116;2022-09-01T00:46:29;93311.34;;;14.76;87.61
21742;BME280;11033;47.490;11.116;2022-09-01T00:49:01;93315.88;;;14.69;91.06
21742;BME280;11033;47.490;11.116;2022-09-01T00:51:27;93320.13;;;14.76;88.49
21742;BME280;11033;47.490;11.116;2022-09-01T00:53:54;93316.22;;;14.79;88.51
21742;BME280;11033;47.490;11.116;2022-09-01T00:56:21;93314.59;;;14.78;87.10
21742;BME280;11033;47.490;11.116;2022-09-01T00:58:48;93309.69;;;14.81;87.55
21742;BME280;11033;47.490;11.116;2022-09-01T01:01:14;93306.22;;;14.81;87.29
21742;BME280;11033;47.490;11.116;2022-09-01T01:03:39;93304.22;;;14.76;89.12
21742;BME280;11033;47.490;11.116;2022-09-01T01:06:08;93305.22;;;14.75;88.12
21742;BME280;11033;47.490;11.116;2022-09-01T01:08:37;93311.34;;;14.76;87.52
21742;BME280;11033;47.490;11.116;2022-09-01T01:11:09;93310.16;;;14.72;89.81
21742;BME280;11033;47.490;11.116;2022-09-01T01:13:47;93310.19;;;14.65;91.68
21742;BME280;11033;47.490;11.116;2022-09-01T01:16:16;93303.22;;;14.71;88.70
21742;BME280;11033;47.490;11.116;2022-09-01T01:18:41;93308.16;;;14.61;90.91
21742;BME280;11033;47.490;11.116;2022-09-01T01:21:14;93302.84;;;14.61;89.78
21742;BME280;11033;47.490;11.116;2022-09-01T01:26:50;93298.56;;;14.59;92.23
21742;BME280;11033;47.490;11.116;2022-09-01T01:29:17;93298.50;;;14.73;87.90
21742;BME280;11033;47.490;11.116;2022-09-01T01:31:43;93293.63;;;14.70;89.70
21742;BME280;11033;47.490;11.116;2022-09-01T01:34:08;93301.59;;;14.70;88.96
21742;BME280;11033;47.490;11.116;2022-09-01T01:36:36;93298.09;;;14.76;87.31
21742;BME280;11033;47.490;11.116;2022-09-01T01:39:09;93298.91;;;14.76;87.75
21742;BME280;11033;47.490;11.116;2022-09-01T01:41:39;93299.13;;;14.75;88.29
21742;BME280;11033;47.490;11.116;2022-09-01T01:44:08;93306.59;;;14.46;93.14
21742;BME280;11033;47.490;11.116;2022-09-01T01:46:40;93302.03;;;14.60;91.09
21742;BME280;11033;47.490;11.116;2022-09-01T01:49:08;93303.22;;;14.71;90.10
21742;BME280;11033;47.490;11.116;2022-09-01T01:51:33;93298.69;;;14.78;88.01
21742;BME280;11033;47.490;11.116;2022-09-01T01:53:59;93299.53;;;14.72;90.52
21742;BME280;11033;47.490;11.116;2022-09-01T01:56:30;93292.19;;;14.74;89.10
21742;BME280;11033;47.490;11.116;2022-09-01T01:58:58;93292.38;;;14.79;88.53
21742;BME280;11033;47.490;11.116;2022-09-01T02:01:28;93299.53;;;14.72;89.79
21742;BME280;11033;47.490;11.116;2022-09-01T02:03:55;93298.34;;;14.68;91.03
21742;BME280;11033;47.490;11.116;2022-09-01T02:06:22;93300.38;;;14.66;91.18
21742;BME280;11033;47.490;11.116;2022-09-01T02:08:50;93298.34;;;14.68;90.26
21742;BME280;11033;47.490;11.116;2022-09-01T02:11:16;93295.47;;;14.69;89.10
21742;BME280;11033;47.490;11.116;2022-09-01T02:13:42;93306.66;;;14.78;88.97
21742;BME280;11033;47.490;11.116;2022-09-01T02:16:09;93300.75;;;14.76;88.45
21742;BME280;11033;47.490;11.116;2022-09-01T02:18:42;93307.50;;;14.72;90.33
21742;BME280;11033;47.490;11.116;2022-09-01T02:21:12;93304.69;;;14.60;92.68
21742;BME280;11033;47.490;11.116;2022-09-01T02:23:40;93309.34;;;14.71;87.60
21742;BME280;11033;47.490;11.116;2022-09-01T02:26:07;93307.50;;;14.72;88.45
21742;BME280;11033;47.490;11.116;2022-09-01T02:28:37;93310.56;;;14.69;90.52
21742;BME280;11033;47.490;11.116;2022-09-01T02:31:07;93307.75;;;14.57;91.67
21742;BME280;11033;47.490;11.116;2022-09-01T02:33:33;93302.25;;;14.58;92.19
21742;BME280;11033;47.490;11.116;2022-09-01T02:36:01;93300.59;;;14.64;89.61
21742;BME280;11033;47.490;11.116;2022-09-01T02:38:28;93299.34;;;14.67;89.55
21742;BME280;11033;47.490;11.116;2022-09-01T02:40:55;93296.09;;;14.65;88.36
21742;BME280;11033;47.490;11.116;2022-09-01T02:43:21;93296.34;;;14.56;90.27
21742;BME280;11033;47.490;11.116;2022-09-01T02:45:50;93297.19;;;14.50;90.89
21742;BME280;11033;47.490;11.116;2022-09-01T02:48:26;93296.34;;;14.56;90.87
21742;BME280;11033;47.490;11.116;2022-09-01T02:50:53;93304.13;;;14.45;93.08
21742;BME280;11033;47.490;11.116;2022-09-01T02:53:21;93296.53;;;14.62;89.95
21742;BME280;11033;47.490;11.116;2022-09-01T02:55:47;93302.91;;;14.47;92.11
21742;BME280;11033;47.490;11.116;2022-09-01T02:58:12;93301.88;;;14.42;91.64
21742;BME280;11033;47.490;11.116;2022-09-01T03:00:43;93300.47;;;14.33;92.30
21742;BME280;11033;47.490;11.116;2022-09-01T03:03:09;93289.47;;;14.42;91.09
21742;BME280;11033;47.490;11.116;2022-09-01T03:05:37;93292.09;;;14.49;90.39
21742;BME280;11033;47.490;11.116;2022-09-01T03:08:05;93292.31;;;14.47;89.32
21742;BME280;11033;47.490;11.116;2022-09-01T03:10:35;93288.25;;;14.45;90.33
21742;BME280;11033;47.490;11.116;2022-09-01T03:13:05;93284.16;;;14.42;90.97
21742;BME280;11033;47.490;11.116;2022-09-01T03:15:31;93280.50;;;14.43;90.50
21742;BME280;11033;47.490;11.116;2022-09-01T03:17:58;93276.81;;;14.38;91.43
21742;BME280;11033;47.490;11.116;2022-09-01T03:20:26;93276.41;;;14.47;88.14
21742;BME280;11033;47.490;11.116;2022-09-01T03:22:52;93277.22;;;14.41;90.36
21742;BME280;11033;47.490;11.116;2022-09-01T03:25:18;93282.13;;;14.38;91.75
21742;BME280;11033;47.490;11.116;2022-09-01T03:27:44;93283.00;;;14.12;95.10
21742;BME280;11033;47.490;11.116;2022-09-01T03:30:10;93277.66;;;14.25;93.03
21742;BME280;11033;47.490;11.116;2022-09-01T03:32:35;93277.84;;;14.30;92.02
21742;BME280;11033;47.490;11.116;2022-09-01T03:35:01;93266.63;;;14.28;91.85
21742;BME280;11033;47.490;11.116;2022-09-01T03:37:26;93267.06;;;14.32;92.06
21742;BME280;11033;47.490;11.116;2022-09-01T03:39:52;93271.72;;;14.36;92.26
21742;BME280;11033;47.490;11.116;2022-09-01T03:42:17;93273.97;;;14.26;92.95
21742;BME280;11033;47.490;11.116;2022-09-01T03:44:44;93273.16;;;14.25;92.38
21742;BME280;11033;47.490;11.116;2022-09-01T03:47:09;93274.19;;;14.31;91.89
21742;BME280;11033;47.490;11.116;2022-09-01T03:49:35;93265.22;;;14.32;92.56
21742;BME280;11033;47.490;11.116;2022-09-01T03:52:04;93266.22;;;14.38;90.28
21742;BME280;11033;47.490;11.116;2022-09-01T03:54:33;93263.78;;;14.36;91.77
21742;BME280;11033;47.490;11.116;2022-09-01T03:56:58;93270.94;;;14.22;94.87
21742;BME280;11033;47.490;11.116;2022-09-01T03:59:24;93265.03;;;14.14;95.46
21742;BME280;11033;47.490;11.116;2022-09-01T04:01:52;93267.69;;;14.14;95.77
21742;BME280;11033;47.490;11.116;2022-09-01T04:04:18;93257.47;;;14.24;95.27
21742;BME280;11033;47.490;11.116;2022-09-01T04:06:44;93261.75;;;14.32;92.33
21742;BME280;11033;47.490;11.116;2022-09-01T04:09:10;93259.69;;;14.40;91.19
21742;BME280;11033;47.490;11.116;2022-09-01T04:11:36;93254.22;;;14.22;95.12
21742;BME280;11033;47.490;11.116;2022-09-01T04:14:03;93255.22;;;14.34;91.85
21742;BME280;11033;47.490;11.116;2022-09-01T04:16:31;93262.59;;;14.12;95.61
21742;BME280;11033;47.490;11.116;2022-09-01T04:19:17;93265.03;;;14.14;95.43
21742;BME280;11033;47.490;11.116;2022-09-01T04:21:52;93254.88;;;14.11;95.13
21742;BME280;11033;47.490;11.116;2022-09-01T04:24:18;93255.25;;;14.21;94.10
21742;BME280;11033;47.490;11.116;2022-09-01T04:26:45;93256.44;;;14.25;93.42
21742;BME280;11033;47.490;11.116;2022-09-01T04:29:13;93248.91;;;14.22;94.83
21742;BME280;11033;47.490;11.116;2022-09-01T04:31:39;93248.69;;;14.30;92.00
21742;BME280;11033;47.490;11.116;2022-09-01T04:34:05;93247.91;;;14.23;93.88
21742;BME280;11033;47.490;11.116;2022-09-01T04:36:41;93247.97;;;14.03;96.23
21742;BME280;11033;47.490;11.116;2022-09-01T04:39:08;93244.88;;;14.13;96.60
21742;BME280;11033;47.490;11.116;2022-09-01T04:41:37;93255.88;;;14.10;95.46
21742;BME280;11033;47.490;11.116;2022-09-01T04:44:04;93250.00;;;14.01;95.54
21742;BME280;11033;47.490;11.116;2022-09-01T04:46:32;93254.44;;;14.14;93.48
21742;BME280;11033;47.490;11.116;2022-09-01T04:49:00;93252.00;;;14.19;93.14
21742;BME280;11033;47.490;11.116;2022-09-01T04:51:31;93255.25;;;14.21;93.61
21742;BME280;11033;47.490;11.116;2022-09-01T04:53:57;93249.94;;;14.21;95.65
21742;BME280;11033;47.490;11.116;2022-09-01T04:56:24;93256.25;;;14.26;94.30
21742;BME280;11033;47.490;11.116;2022-09-01T04:58:51;93265.03;;;14.20;94.34
21742;BME280;11033;47.490;11.116;2022-09-01T05:01:23;93265.22;;;14.32;91.10
21742;BME280;11033;47.490;11.116;2022-09-01T05:03:49;93264.59;;;14.37;91.60
21742;BME280;11033;47.490;11.116;2022-09-01T05:06:26;93265.03;;;14.20;94.15
21742;BME280;11033;47.490;11.116;2022-09-01T05:08:52;93274.44;;;14.10;94.63
21742;BME280;11033;47.490;11.116;2022-09-01T05:11:20;93267.09;;;14.12;94.68
21742;BME280;11033;47.490;11.116;2022-09-01T05:13:47;93266.03;;;14.19;94.71
21742;BME280;11033;47.490;11.116;2022-09-01T05:16:15;93269.56;;;14.07;95.80
21742;BME280;11033;47.490;11.116;2022-09-01T05:18:44;93269.28;;;14.35;92.37
21742;BME280;11033;47.490;11.116;2022-09-01T05:21:13;93270.91;;;14.42;91.31
21742;BME280;11033;47.490;11.116;2022-09-01T05:23:41;93270.28;;;14.40;91.91
21742;BME280;11033;47.490;11.116;2022-09-01T05:26:15;93272.13;;;14.46;93.96
21742;BME280;11033;47.490;11.116;2022-09-01T05:28:47;93270.47;;;14.52;92.54
21742;BME280;11033;47.490;11.116;2022-09-01T05:31:13;93276.34;;;14.61;91.16
21742;BME280;11033;47.490;11.116;2022-09-01T05:33:39;93261.69;;;14.51;93.16
21742;BME280;11033;47.490;11.116;2022-09-01T05:36:12;93262.88;;;14.62;92.17
21742;BME280;11033;47.490;11.116;2022-09-01T05:38:38;93259.97;;;14.70;91.38
21742;BME280;11033;47.490;11.116;2022-09-01T05:41:07;93272.22;;;14.71;92.22
21742;BME280;11033;47.490;11.116;2022-09-01T05:43:34;93270.16;;;14.73;91.93
21742;BME280;11033;47.490;11.116;2022-09-01T05:46:05;93265.25;;;14.77;91.95
21742;BME280;11033;47.490;11.116;2022-09-01T05:48:30;93260.50;;;14.85;89.72
21742;BME280;11033;47.490;11.116;2022-09-01T05:51:05;93258.22;;;14.89;88.67
21742;BME280;11033;47.490;11.116;2022-09-01T05:53:31;93263.13;;;14.92;88.36
21742;BME280;11033;47.490;11.116;2022-09-01T05:55:59;93266.38;;;14.94;87.48
21742;BME280;11033;47.490;11.116;2022-09-01T05:58:31;93266.78;;;14.91;90.20
21742;BME280;11033;47.490;11.116;2022-09-01T06:00:56;93274.97;;;14.96;89.10
21742;BME280;11033;47.490;11.116;2022-09-01T06:03:23;93270.84;;;15.00;88.91
21742;BME280;11033;47.490;11.116;2022-09-01T06:05:49;93268.00;;;14.95;90.94
21742;BME280;11033;47.490;11.116;2022-09-01T06:08:21;93264.25;;;15.09;89.18
21742;BME280;11033;47.490;11.116;2022-09-01T06:10:47;93269.72;;;15.14;89.15
21742;BME280;11033;47.490;11.116;2022-09-01T06:13:15;93271.97;;;15.17;88.88
21742;BME280;11033;47.490;11.116;2022-09-01T06:15:41;93272.56;;;15.19;88.76
21742;BME280;11033;47.490;11.116;2022-09-01T06:18:10;93272.28;;;15.28;86.63
21742;BME280;11033;47.490;11.116;2022-09-01T06:20:46;93272.72;;;15.25;87.54
21742;BME280;11033;47.490;11.116;2022-09-01T06:23:13;93275.53;;;15.30;86.94
21742;BME280;11033;47.490;11.116;2022-09-01T06:25:40;93272.63;;;15.38;87.08
21742;BME280;11033;47.490;11.116;2022-09-01T06:28:07;93265.22;;;15.46;87.83
21742;BME280;11033;47.490;11.116;2022-09-01T06:30:36;93264.41;;;15.46;87.14
21742;BME280;11033;47.490;11.116;2022-09-01T06:33:03;93264.81;;;15.43;86.73
21742;BME280;11033;47.490;11.116;2022-09-01T06:35:34;93258.66;;;15.49;85.85
21742;BME280;11033;47.490;11.116;2022-09-01T06:37:59;93263.09;;;15.55;85.00
21742;BME280;11033;47.490;11.116;2022-09-01T06:40:26;93267.22;;;15.51;84.76
21742;BME280;11033;47.490;11.116;2022-09-01T06:42:52;93258.75;;;15.67;84.84
21742;BME280;11033;47.490;11.116;2022-09-01T06:45:20;93263.41;;;15.72;87.12
21742;BME280;11033;47.490;11.116;2022-09-01T06:47:47;93272.47;;;15.64;86.40
21742;BME280;11033;47.490;11.116;2022-09-01T06:50:18;93263.91;;;15.55;86.80
21742;BME280;11033;47.490;11.116;2022-09-01T06:52:46;93273.66;;;15.37;88.87
21742;BME280;11033;47.490;11.116;2022-09-01T06:55:15;93264.16;;;15.79;86.80
21742;BME280;11033;47.490;11.116;2022-09-01T06:57:42;93267.34;;;15.88;85.95
21742;BME280;11033;47.490;11.116;2022-09-01T07:00:13;93270.47;;;16.03;85.62
21742;BME280;11033;47.490;11.116;2022-09-01T07:02:44;93276.38;;;15.62;87.35
21742;BME280;11033;47.490;11.116;2022-09-01T07:05:11;93279.53;;;15.95;85.83
21742;BME280;11033;47.490;11.116;2022-09-01T07:07:39;93281.84;;;16.10;85.46
21742;BME280;11033;47.490;11.116;2022-09-01T07:10:05;93283.09;;;16.07;85.13
21742;BME280;11033;47.490;11.116;2022-09-01T07:12:30;93281.72;;;16.23;84.74
21742;BME280;11033;47.490;11.116;2022-09-01T07:14:56;93279.78;;;16.12;84.68
21742;BME280;11033;47.490;11.116;2022-09-01T07:17:22;93284.22;;;16.18;84.67
21742;BME280;11033;47.490;11.116;2022-09-01T07:19:49;93282.72;;;16.04;84.46
21742;BME280;11033;47.490;11.116;2022-09-01T07:22:14;93276.53;;;16.10;84.04
21742;BME280;11033;47.490;11.116;2022-09-01T07:24:40;93287.78;;;16.30;83.67
21742;BME280;11033;47.490;11.116;2022-09-01T07:27:05;93292.38;;;16.41;83.06
21742;BME280;11033;47.490;11.116;2022-09-01T07:29:31;93280.91;;;16.59;82.78
21742;BME280;11033;47.490;11.116;2022-09-01T07:31:57;93291.78;;;16.39;83.30
21742;BME280;11033;47.490;11.116;2022-09-01T07:34:22;93284.84;;;16.75;82.45
21742;BME280;11033;47.490;11.116;2022-09-01T07:36:48;93292.00;;;16.93;82.13
21742;BME280;11033;47.490;11.116;2022-09-01T07:39:14;93294.00;;;16.42;82.75
21742;BME280;11033;47.490;11.116;2022-09-01T07:41:40;93292.69;;;16.70;82.70
21742;BME280;11033;47.490;11.116;2022-09-01T07:44:07;93301.69;;;16.69;81.30
21742;BME280;11033;47.490;11.116;2022-09-01T07:46:35;93295.75;;;17.03;81.79
21742;BME280;11033;47.490;11.116;2022-09-01T07:49:01;93299.03;;;17.17;81.20
21742;BME280;11033;47.490;11.116;2022-09-01T07:51:27;93299.53;;;17.26;80.48
21742;BME280;11033;47.490;11.116;2022-09-01T07:53:54;93300.66;;;17.18;81.45
21742;BME280;11033;47.490;11.116;2022-09-01T07:56:22;93306.06;;;17.41;81.12
21742;BME280;11033;47.490;11.116;2022-09-01T07:58:49;93301.75;;;16.99;81.72
21742;BME280;11033;47.490;11.116;2022-09-01T08:01:18;93302.09;;;17.32;81.11
21742;BME280;11033;47.490;11.116;2022-09-01T08:03:48;93303.00;;;17.56;79.94
21742;BME280;11033;47.490;11.116;2022-09-01T08:06:17;93298.50;;;17.57;78.72
21742;BME280;11033;47.490;11.116;2022-09-01T08:08:44;93296.41;;;17.59;78.25
21742;BME280;11033;47.490;11.116;2022-09-01T08:11:15;93295.09;;;17.91;77.61
21742;BME280;11033;47.490;11.116;2022-09-01T08:13:40;93291.25;;;17.87;77.88
21742;BME280;11033;47.490;11.116;2022-09-01T08:16:06;93293.94;;;17.87;77.05
21742;BME280;11033;47.490;11.116;2022-09-01T08:18:32;93288.03;;;17.97;77.70
21742;BME280;11033;47.490;11.116;2022-09-01T08:20:58;93294.03;;;17.81;78.00
21742;BME280;11033;47.490;11.116;2022-09-01T08:23:23;93297.75;;;18.03;78.38
21742;BME280;11033;47.490;11.116;2022-09-01T08:25:52;93293.94;;;17.99;78.24
21742;BME280;11033;47.490;11.116;2022-09-01T08:28:18;93291.03;;;18.12;77.94
21742;BME280;11033;47.490;11.116;2022-09-01T08:30:45;93298.69;;;17.85;78.35
21742;BME280;11033;47.490;11.116;2022-09-01T08:33:14;93294.38;;;17.72;78.03
21742;BME280;11033;47.490;11.116;2022-09-01T08:35:40;93295.66;;;18.05;76.87
21742;BME280;11033;47.490;11.116;2022-09-01T08:38:08;93292.44;;;18.26;75.93
21742;BME280;11033;47.490;11.116;2022-09-01T08:40:34;93288.63;;;18.22;75.83
21742;BME280;11033;47.490;11.116;2022-09-01T08:45:54;93285.25;;;18.38;74.48
21742;BME280;11033;47.490;11.116;2022-09-01T08:50:58;93287.81;;;18.33;71.98
21742;BME280;11033;47.490;11.116;2022-09-01T08:53:31;93281.28;;;18.06;71.88
21742;BME280;11033;47.490;11.116;2022-09-01T08:55:57;93286.19;;;18.32;72.66
21742;BME280;11033;47.490;11.116;2022-09-01T08:58:24;93288.38;;;18.35;72.99
21742;BME280;11033;47.490;11.116;2022-09-01T09:00:56;93285.16;;;18.22;73.64
21742;BME280;11033;47.490;11.116;2022-09-01T09:11:47;93293.09;;;18.57;70.62
21742;BME280;11033;47.490;11.116;2022-09-01T09:14:44;93292.94;;;18.98;71.72
21742;BME280;11033;47.490;11.116;2022-09-01T09:17:14;93287.97;;;18.90;70.05
21742;BME280;11033;47.490;11.116;2022-09-01T09:19:43;93289.50;;;19.15;71.78
21742;BME280;11033;47.490;11.116;2022-09-01T09:22:12;93291.13;;;19.16;72.09
21742;BME280;11033;47.490;11.116;2022-09-01T09:25:05;93294.91;;;19.48;72.08
21742;BME280;11033;47.490;11.116;2022-09-01T09:27:40;93292.41;;;19.42;69.62
21742;BME280;11033;47.490;11.116;2022-09-01T09:30:19;93292.50;;;19.75;69.84
21742;BME280;11033;47.490;11.116;2022-09-01T09:33:00;93290.13;;;19.95;68.87
21742;BME280;11033;47.490;11.116;2022-09-01T09:35:33;93288.34;;;20.01;68.86
21742;BME280;11033;47.490;11.116;2022-09-01T09:43:29;93291.44;;;20.43;69.03
21742;BME280;11033;47.490;11.116;2022-09-01T09:48:46;93286.50;;;19.85;70.12
21742;BME280;11033;47.490;11.116;2022-09-01T09:51:20;93287.84;;;20.38;70.10
21742;BME280;11033;47.490;11.116;2022-09-01T09:53:47;93285.66;;;20.51;69.95
21742;BME280;11033;47.490;11.116;2022-09-01T09:58:43;93279.00;;;20.54;69.54
21742;BME280;11033;47.490;11.116;2022-09-01T10:03:51;93274.81;;;21.02;68.69
21742;BME280;11033;47.490;11.116;2022-09-01T10:08:55;93273.28;;;21.11;67.79
21742;BME280;11033;47.490;11.116;2022-09-01T10:11:27;93271.53;;;21.21;67.84
21742;BME280;11033;47.490;11.116;2022-09-01T10:13:54;93271.97;;;21.35;67.33
21742;BME280;11033;47.490;11.116;2022-09-01T10:16:26;93269.69;;;21.00;66.08
21742;BME280;11033;47.490;11.116;2022-09-01T10:18:54;93266.66;;;21.40;66.66
21742;BME280;11033;47.490;11.116;2022-09-01T10:21:35;93268.13;;;21.80;67.31
21742;BME280;11033;47.490;11.116;2022-09-01T10:24:51;93267.53;;;21.73;67.07
21742;BME280;11033;47.490;11.116;2022-09-01T10:26:56;93265.69;;;22.10;66.52
21742;BME280;11033;47.490;11.116;2022-09-01T10:29:31;93252.50;;;22.41;65.73
21742;BME280;11033;47.490;11.116;2022-09-01T10:32:01;93252.16;;;22.27;64.58
21742;BME280;11033;47.490;11.116;2022-09-01T10:34:34;93250.38;;;22.90;64.65
21742;BME280;11033;47.490;11.116;2022-09-01T10:37:02;93246.94;;;23.05;64.50
21742;BME280;11033;47.490;11.116;2022-09-01T10:39:27;93247.50;;;23.12;62.82
21742;BME280;11033;47.490;11.116;2022-09-01T10:41:56;93240.50;;;23.11;63.43
21742;BME280;11033;47.490;11.116;2022-09-01T10:44:28;93243.31;;;22.79;60.91
21742;BME280;11033;47.490;11.116;2022-09-01T10:47:01;93250.44;;;22.58;62.13
21742;BME280;11033;47.490;11.116;2022-09-01T10:51:53;93247.25;;;23.19;62.77
21742;BME280;11033;47.490;11.116;2022-09-01T10:57:08;93239.75;;;22.68;60.35
21742;BME280;11033;47.490;11.116;2022-09-01T10:59:35;93255.28;;;22.56;61.81
21742;BME280;11033;47.490;11.116;2022-09-01T11:02:09;93256.09;;;22.14;60.01
21742;BME280;11033;47.490;11.116;2022-09-01T11:07:17;93246.97;;;22.16;61.97
21742;BME280;11033;47.490;11.116;2022-09-01T11:10:21;93265.03;;;22.25;61.00
21742;BME280;11033;47.490;11.116;2022-09-01T11:13:16;93252.84;;;22.55;59.85
21742;BME280;11033;47.490;11.116;2022-09-01T11:15:44;93262.63;;;21.97;59.97
21742;BME280;11033;47.490;11.116;2022-09-01T11:18:16;93263.66;;;21.91;59.38
21742;BME280;11033;47.490;11.116;2022-09-01T11:20:43;93262.16;;;22.37;61.11
21742;BME280;11033;47.490;11.116;2022-09-01T11:23:28;93246.88;;;22.85;60.23
21742;BME280;11033;47.490;11.116;2022-09-01T11:26:00;93248.88;;;22.67;58.97
21742;BME280;11033;47.490;11.116;2022-09-01T11:31:10;93253.25;;;22.78;60.16
21742;BME280;11033;47.490;11.116;2022-09-01T11:36:36;93249.03;;;22.45;58.33
21742;BME280;11033;47.490;11.116;2022-09-01T11:47:07;93246.88;;;22.90;57.57
21742;BME280;11033;47.490;11.116;2022-09-01T11:49:53;93255.66;;;23.43;59.05
21742;BME280;11033;47.490;11.116;2022-09-01T11:52:21;93239.66;;;23.00;56.87
21742;BME280;11033;47.490;11.116;2022-09-01T11:54:48;93247.03;;;23.35;57.56
21742;BME280;11033;47.490;11.116;2022-09-01T11:57:26;93245.44;;;23.45;56.50
21742;BME280;11033;47.490;11.116;2022-09-01T11:59:54;93252.16;;;23.42;57.69
21742;BME280;11033;47.490;11.116;2022-09-01T12:04:52;93250.56;;;23.41;57.56
21742;BME280;11033;47.490;11.116;2022-09-01T12:07:39;93248.09;;;23.34;56.60
21742;BME280;11033;47.490;11.116;2022-09-01T12:10:33;93252.41;;;23.35;55.70
21742;BME280;11033;47.490;11.116;2022-09-01T12:13:11;93251.31;;;23.31;55.48
21742;BME280;11033;47.490;11.116;2022-09-01T12:15:39;93251.72;;;24.16;57.38
21742;BME280;11033;47.490;11.116;2022-09-01T12:18:13;93238.78;;;23.88;56.29
21742;BME280;11033;47.490;11.116;2022-09-01T12:20:39;93243.00;;;23.38;57.16
21742;BME280;11033;47.490;11.116;2022-09-01T12:23:26;93253.63;;;24.11;54.93
21742;BME280;11033;47.490;11.116;2022-09-01T12:25:55;93245.50;;;24.46;56.64
21742;BME280;11033;47.490;11.116;2022-09-01T12:28:22;93240.69;;;24.33;56.09
21742;BME280;11033;47.490;11.116;2022-09-01T12:30:49;93249.22;;;24.65;55.08
21742;BME280;11033;47.490;11.116;2022-09-01T12:33:16;93246.06;;;23.87;55.11
21742;BME280;11033;47.490;11.116;2022-09-01T12:35:43;93244.47;;;24.32;55.87
21742;BME280;11033;47.490;11.116;2022-09-01T12:38:35;93254.03;;;24.99;53.00
21742;BME280;11033;47.490;11.116;2022-09-01T12:41:01;93248.16;;;24.66;53.82
21742;BME280;11033;47.490;11.116;2022-09-01T12:43:37;93246.03;;;24.53;54.60
21742;BME280;11033;47.490;11.116;2022-09-01T12:46:06;93247.13;;;23.66;53.78
21742;BME280;11033;47.490;11.116;2022-09-01T12:48:36;93242.81;;;23.70;54.67
21742;BME280;11033;47.490;11.116;2022-09-01T12:51:24;93251.97;;;23.69;54.79
21742;BME280;11033;47.490;11.116;2022-09-01T12:53:55;93248.63;;;22.69;54.36
21742;BME280;11033;47.490;11.116;2022-09-01T12:56:34;93249.91;;;23.14;54.73
21742;BME280;11033;47.490;11.116;2022-09-01T12:59:10;93254.81;;;22.69;55.53
21742;BME280;11033;47.490;11.116;2022-09-01T13:01:39;93256.38;;;22.60;56.18
21742;BME280;11033;47.490;11.116;2022-09-01T13:04:26;93259.88;;;22.19;58.30
21742;BME280;11033;47.490;11.116;2022-09-01T13:07:04;93261.41;;;22.09;57.46
21742;BME280;11033;47.490;11.116;2022-09-01T13:09:30;93264.09;;;22.52;57.66
21742;BME280;11033;47.490;11.116;2022-09-01T13:12:31;93263.47;;;24.91;54.23
21742;BME280;11033;47.490;11.116;2022-09-01T13:14:56;93265.16;;;24.52;54.46
21742;BME280;11033;47.490;11.116;2022-09-01T13:17:21;93266.00;;;24.37;54.13
21742;BME280;11033;47.490;11.116;2022-09-01T13:19:48;93251.66;;;24.67;53.59
21742;BME280;11033;47.490;11.116;2022-09-01T13:22:13;93256.63;;;25.74;51.65
21742;BME280;11033;47.490;11.116;2022-09-01T13:24:38;93259.41;;;26.66;49.02
21742;BME280;11033;47.490;11.116;2022-09-01T13:27:04;93253.69;;;28.19;48.98
21742;BME280;11033;47.490;11.116;2022-09-01T13:29:29;93249.50;;;28.92;47.75
21742;BME280;11033;47.490;11.116;2022-09-01T13:31:55;93254.03;;;30.01;45.94
21742;BME280;11033;47.490;11.116;2022-09-01T13:34:21;93245.72;;;30.96;41.09
21742;BME280;11033;47.490;11.116;2022-09-01T13:36:46;93239.88;;;30.80;43.71
21742;BME280;11033;47.490;11.116;2022-09-01T13:39:12;93239.63;;;31.95;40.33
21742;BME280;11033;47.490;11.116;2022-09-01T13:41:37;93244.44;;;32.15;42.00
21742;BME280;11033;47.490;11.116;2022-09-01T13:44:03;93243.16;;;32.47;38.33
21742;BME280;11033;47.490;11.116;2022-09-01T13:46:28;93239.88;;;32.97;40.45
21742;BME280;11033;47.490;11.116;2022-09-01T13:48:53;93231.91;;;30.83;39.06
21742;BME280;11033;47.490;11.116;2022-09-01T13:51:26;93236.13;;;32.03;41.66
21742;BME280;11033;47.490;11.116;2022-09-01T13:53:52;93229.19;;;33.13;37.91
21742;BME280;11033;47.490;11.116;2022-09-01T13:56:17;93225.69;;;33.04;36.73
21742;BME280;11033;47.490;11.116;2022-09-01T13:58:42;93230.03;;;32.06;40.24